createdAt,value
2023-07-18T00:01:41.226Z,78.40
2023-07-18T00:04:08.893Z,78.00
2023-07-18T00:06:41.458Z,77.70
2023-07-18T00:09:09.170Z,77.30
2023-07-18T00:11:38.877Z,76.90
2023-07-18T00:14:11.346Z,76.70
2023-07-18T00:16:41.197Z,76.20
2023-07-18T00:19:13.227Z,75.60
2023-07-18T00:21:41.104Z,76.00
2023-07-18T00:24:08.733Z,74.80
2023-07-18T00:26:35.999Z,74.10
2023-07-18T00:29:03.303Z,73.70
2023-07-18T00:31:30.606Z,72.90
2023-07-18T00:33:58.611Z,72.80
2023-07-18T00:36:26.858Z,73.10
2023-07-18T00:38:54.178Z,72.30
2023-07-18T00:41:21.665Z,72.20
2023-07-18T00:43:53.881Z,71.50
2023-07-18T00:46:25.522Z,70.50
2023-07-18T00:48:52.906Z,71.10
2023-07-18T00:51:25.558Z,71.00
2023-07-18T00:53:54.229Z,70.60
2023-07-18T00:56:22.448Z,70.60
2023-07-18T00:58:55.715Z,71.10
2023-07-18T01:01:23.623Z,70.40
2023-07-18T01:03:55.725Z,70.10
2023-07-18T01:06:26.182Z,70.00
2023-07-18T01:08:56.005Z,69.30
2023-07-18T01:11:23.273Z,68.60
2023-07-18T01:13:50.543Z,69.00
2023-07-18T01:16:18.016Z,68.20
2023-07-18T01:18:47.494Z,69.10
2023-07-18T01:21:20.328Z,68.90
2023-07-18T01:23:51.756Z,69.00
2023-07-18T01:26:19.076Z,68.70
2023-07-18T01:28:46.319Z,69.40
2023-07-18T01:31:13.654Z,68.00
2023-07-18T01:33:47.273Z,67.50
2023-07-18T01:36:14.595Z,67.80
2023-07-18T01:38:41.884Z,68.70
2023-07-18T01:41:11.499Z,68.90
2023-07-18T01:43:38.869Z,69.80
2023-07-18T01:46:08.701Z,69.80
2023-07-18T01:48:39.400Z,69.60
2023-07-18T01:51:06.735Z,68.80
2023-07-18T01:53:34.001Z,68.30
2023-07-18T01:56:01.305Z,67.90
2023-07-18T01:58:28.597Z,68.70
2023-07-18T02:00:58.371Z,67.90
2023-07-18T02:03:28.131Z,67.50
2023-07-18T02:05:55.416Z,67.90
2023-07-18T02:08:22.706Z,68.20
2023-07-18T02:10:50.404Z,67.30
2023-07-18T02:13:18.083Z,66.90
2023-07-18T02:15:45.465Z,66.00
2023-07-18T02:18:12.819Z,66.30
2023-07-18T02:20:43.511Z,66.20
2023-07-18T02:23:15.290Z,66.10
2023-07-18T02:25:42.631Z,66.70
2023-07-18T02:28:11.308Z,66.10
2023-07-18T02:30:39.388Z,66.10
2023-07-18T02:33:09.364Z,66.20
2023-07-18T02:35:39.101Z,66.00
2023-07-18T02:38:08.594Z,65.80
2023-07-18T02:40:38.449Z,65.80
2023-07-18T02:43:05.779Z,65.80
2023-07-18T02:45:35.487Z,65.50
2023-07-18T02:48:02.776Z,66.30
2023-07-18T02:50:30.115Z,65.90
2023-07-18T02:53:01.793Z,66.30
2023-07-18T02:55:31.404Z,66.30
2023-07-18T02:57:58.676Z,66.50
2023-07-18T03:00:29.746Z,66.50
2023-07-18T03:02:57.197Z,66.00
2023-07-18T03:05:24.741Z,66.30
2023-07-18T03:07:55.669Z,66.50
2023-07-18T03:10:25.387Z,66.60
2023-07-18T03:12:55.221Z,66.50
2023-07-18T03:15:22.823Z,67.10
2023-07-18T03:17:50.170Z,67.00
2023-07-18T03:20:21.016Z,66.70
2023-07-18T03:22:49.492Z,67.00
2023-07-18T03:25:18.623Z,67.20
2023-07-18T03:27:46.035Z,67.40
2023-07-18T03:30:15.491Z,67.30
2023-07-18T03:32:43.061Z,66.90
2023-07-18T03:35:15.423Z,67.20
2023-07-18T03:37:43.172Z,67.30
2023-07-18T03:40:11.503Z,67.40
2023-07-18T03:42:43.785Z,67.20
2023-07-18T03:45:14.122Z,67.10
2023-07-18T03:47:42.698Z,67.10
2023-07-18T03:50:12.928Z,66.70
2023-07-18T03:52:41.032Z,66.90
2023-07-18T03:55:08.798Z,67.30
2023-07-18T03:57:36.544Z,67.90
2023-07-18T04:00:14.982Z,67.40
2023-07-18T04:02:46.503Z,67.70
2023-07-18T04:05:15.733Z,68.20
2023-07-18T04:07:45.108Z,68.30
2023-07-18T04:10:13.485Z,68.10
2023-07-18T04:12:48.999Z,68.30
2023-07-18T04:15:17.031Z,68.70
2023-07-18T04:17:46.635Z,68.30
2023-07-18T04:20:20.949Z,69.30
2023-07-18T04:22:48.503Z,68.80
2023-07-18T04:25:16.109Z,68.80
2023-07-18T04:27:43.406Z,69.10
2023-07-18T04:30:13.223Z,69.40
2023-07-18T04:32:48.050Z,69.80
2023-07-18T04:35:15.583Z,69.70
2023-07-18T04:37:45.378Z,70.10
2023-07-18T04:40:12.924Z,70.20
2023-07-18T04:42:42.614Z,70.40
2023-07-18T04:45:10.153Z,71.00
2023-07-18T04:47:40.349Z,71.30
2023-07-18T04:50:11.677Z,71.30
2023-07-18T04:52:41.061Z,71.30
2023-07-18T04:55:10.078Z,71.20
2023-07-18T04:57:37.530Z,71.50
2023-07-18T05:00:06.833Z,71.70
2023-07-18T05:02:34.283Z,71.50
2023-07-18T05:05:01.615Z,71.00
2023-07-18T05:07:28.909Z,71.10
2023-07-18T05:09:56.176Z,71.70
2023-07-18T05:12:23.531Z,71.40
2023-07-18T05:14:50.856Z,71.00
2023-07-18T05:17:18.208Z,69.80
2023-07-18T05:19:46.100Z,69.50
2023-07-18T05:22:13.455Z,69.10
2023-07-18T05:24:40.863Z,68.60
2023-07-18T05:27:08.184Z,68.80
2023-07-18T05:29:35.538Z,68.80
2023-07-18T05:32:02.975Z,69.20
2023-07-18T05:34:34.352Z,69.40
2023-07-18T05:37:02.160Z,69.80
2023-07-18T05:39:29.598Z,70.10
2023-07-18T05:41:57.037Z,70.20
2023-07-18T05:44:24.364Z,70.10
2023-07-18T05:46:51.634Z,69.90
2023-07-18T05:49:21.111Z,69.90
2023-07-18T05:51:48.490Z,69.30
2023-07-18T05:54:18.140Z,69.40
2023-07-18T05:56:45.439Z,68.70
2023-07-18T05:59:14.929Z,68.40
2023-07-18T06:01:42.303Z,67.50
2023-07-18T06:04:12.212Z,68.30
2023-07-18T06:06:42.524Z,68.10
2023-07-18T06:09:10.010Z,68.00
2023-07-18T06:11:37.504Z,66.30
2023-07-18T06:14:07.478Z,67.20
2023-07-18T06:16:34.949Z,66.10
2023-07-18T06:19:02.404Z,67.30
2023-07-18T06:21:29.715Z,67.10
2023-07-18T06:24:08.494Z,66.80
2023-07-18T06:26:50.696Z,66.20
2023-07-18T06:29:20.043Z,65.40
2023-07-18T06:31:49.020Z,65.40
2023-07-18T06:34:18.612Z,66.00
2023-07-18T06:36:47.013Z,63.70
2023-07-18T06:39:15.398Z,63.40
2023-07-18T06:41:43.052Z,63.90
2023-07-18T06:44:12.782Z,64.50
2023-07-18T06:46:42.608Z,64.10
2023-07-18T06:49:12.112Z,64.20
2023-07-18T06:51:39.434Z,63.80
2023-07-18T06:54:06.722Z,63.90
2023-07-18T06:56:34.024Z,64.10
2023-07-18T06:59:02.670Z,63.80
2023-07-18T07:01:30.089Z,63.90
2023-07-18T07:03:59.740Z,63.90
2023-07-18T07:06:27.094Z,63.50
2023-07-18T07:08:54.427Z,63.00
2023-07-18T07:11:22.022Z,63.00
2023-07-18T07:13:49.821Z,62.00
2023-07-18T07:16:17.304Z,62.20
2023-07-18T07:18:50.420Z,61.50
2023-07-18T07:21:18.111Z,62.30
2023-07-18T07:23:47.972Z,61.90
2023-07-18T07:26:16.705Z,59.60
2023-07-18T07:28:43.977Z,58.80
2023-07-18T07:31:11.377Z,58.20
2023-07-18T07:33:40.805Z,57.80
2023-07-18T07:36:08.152Z,58.50
2023-07-18T07:38:35.683Z,58.40
2023-07-18T07:41:02.962Z,57.20
2023-07-18T07:43:30.252Z,56.40
2023-07-18T07:45:57.567Z,56.30
2023-07-18T07:48:25.585Z,55.40
2023-07-18T07:50:52.897Z,54.40
2023-07-18T07:53:20.222Z,55.90
2023-07-18T07:55:47.578Z,55.30
2023-07-18T07:58:15.462Z,56.00
2023-07-18T08:00:42.784Z,56.70
2023-07-18T08:03:10.356Z,57.60
2023-07-18T08:05:37.787Z,58.50
2023-07-18T08:08:08.143Z,57.90
2023-07-18T08:10:35.600Z,56.10
2023-07-18T08:13:02.893Z,56.00
2023-07-18T08:15:30.258Z,55.40
2023-07-18T08:17:58.353Z,54.60
2023-07-18T08:20:28.930Z,53.40
2023-07-18T08:22:56.640Z,53.10
2023-07-18T08:28:30.279Z,52.50
2023-07-18T08:30:58.632Z,51.50
2023-07-18T08:33:27.369Z,52.30
2023-07-18T08:35:56.607Z,53.80
2023-07-18T08:38:25.413Z,52.90
2023-07-18T08:40:54.518Z,53.60
2023-07-18T08:43:22.778Z,55.50
2023-07-18T08:45:55.810Z,53.80
2023-07-18T08:48:25.606Z,53.40
2023-07-18T08:50:55.714Z,53.70
2023-07-18T08:53:25.386Z,54.00
2023-07-18T08:55:54.629Z,53.60
2023-07-18T08:58:23.683Z,54.40
2023-07-18T09:00:52.374Z,54.80
2023-07-18T09:03:20.698Z,55.80
2023-07-18T09:05:49.036Z,55.00
2023-07-18T09:08:18.581Z,55.90
2023-07-18T09:10:49.174Z,56.10
2023-07-18T09:13:17.581Z,55.00
2023-07-18T09:15:46.436Z,56.50
2023-07-18T09:18:17.569Z,55.50
2023-07-18T09:20:46.479Z,56.20
2023-07-18T09:23:15.678Z,55.50
2023-07-18T09:25:43.875Z,54.90
2023-07-18T09:28:13.586Z,55.20
2023-07-18T09:30:41.815Z,56.80
2023-07-18T09:33:10.372Z,56.30
2023-07-18T09:35:41.142Z,56.80
2023-07-18T09:38:12.409Z,58.40
2023-07-18T09:40:41.984Z,54.50
2023-07-18T09:43:11.375Z,56.20
2023-07-18T09:45:42.135Z,56.60
2023-07-18T09:48:12.381Z,57.00
2023-07-18T09:50:43.699Z,55.60
2023-07-18T09:53:13.577Z,56.90
2023-07-18T09:55:43.101Z,56.20
2023-07-18T09:58:14.147Z,55.20
2023-07-18T10:00:43.227Z,54.10
2023-07-18T10:03:13.306Z,55.70
2023-07-18T10:05:42.122Z,55.40
2023-07-18T10:08:12.078Z,54.90
2023-07-18T10:10:40.561Z,54.00
2023-07-18T10:13:12.080Z,52.90
2023-07-18T10:16:23.511Z,54.40
2023-07-18T10:18:53.132Z,54.50
2023-07-18T10:21:36.204Z,54.30
2023-07-18T10:24:25.140Z,53.20
2023-07-18T10:26:54.905Z,54.20
2023-07-18T10:29:26.028Z,55.20
2023-07-18T10:31:54.995Z,52.60
2023-07-18T10:34:23.793Z,54.60
2023-07-18T10:37:02.029Z,52.80
2023-07-18T10:39:40.805Z,51.80
2023-07-18T10:42:12.909Z,51.70
2023-07-18T10:44:45.012Z,53.10
2023-07-18T10:47:30.089Z,52.00
2023-07-18T10:50:02.681Z,55.10
2023-07-18T10:52:41.337Z,56.80
2023-07-18T10:55:29.798Z,55.20
2023-07-18T10:58:28.310Z,57.70
2023-07-18T11:03:54.248Z,54.80
2023-07-18T11:06:26.227Z,53.10
2023-07-18T11:08:53.835Z,55.80
2023-07-18T11:11:21.488Z,55.20
2023-07-18T11:13:48.960Z,54.40
2023-07-18T11:16:17.475Z,53.10
2023-07-18T11:18:46.071Z,55.60
2023-07-18T11:21:20.072Z,56.20
2023-07-18T11:23:50.510Z,54.50
2023-07-18T11:26:21.001Z,54.60
2023-07-18T11:28:54.853Z,55.50
2023-07-18T11:31:40.955Z,53.30
2023-07-18T11:34:10.318Z,53.60
2023-07-18T11:36:41.179Z,53.90
2023-07-18T11:39:23.221Z,53.00
2023-07-18T11:41:53.479Z,53.30
2023-07-18T11:44:27.529Z,53.40
2023-07-18T11:46:57.581Z,55.60
2023-07-18T11:49:37.474Z,52.80
2023-07-18T11:52:10.114Z,53.60
2023-07-18T11:54:37.755Z,54.50
2023-07-18T11:57:08.785Z,53.70
2023-07-18T11:59:38.271Z,51.80
2023-07-18T12:02:08.261Z,53.20
2023-07-18T12:04:40.055Z,54.00
2023-07-18T12:07:07.869Z,55.60
2023-07-18T12:09:38.057Z,54.70
2023-07-18T12:12:07.992Z,53.40
2023-07-18T12:14:36.470Z,53.60
2023-07-18T12:17:03.911Z,52.60
2023-07-18T12:19:33.645Z,52.30
2023-07-18T12:22:00.940Z,51.50
2023-07-18T12:24:32.967Z,51.40
2023-07-18T12:27:00.607Z,51.10
2023-07-18T12:29:32.242Z,50.50
2023-07-18T12:32:02.251Z,51.30
2023-07-18T12:34:29.664Z,51.60
2023-07-18T12:37:00.472Z,50.60
2023-07-18T12:39:27.775Z,51.00
2023-07-18T12:41:58.392Z,52.50
2023-07-18T12:44:39.853Z,50.20
2023-07-18T12:47:08.320Z,51.30
2023-07-18T12:52:08.902Z,50.90
2023-07-18T12:54:36.214Z,52.10
2023-07-18T12:57:06.467Z,50.60
2023-07-18T12:59:33.893Z,50.40
2023-07-18T13:02:01.968Z,49.80
2023-07-18T13:04:30.516Z,50.40
2023-07-18T13:07:00.072Z,50.40
2023-07-18T13:09:32.040Z,50.20
2023-07-18T13:12:04.586Z,50.00
2023-07-18T13:14:32.048Z,48.90
2023-07-18T13:16:59.645Z,49.30
2023-07-18T13:19:29.259Z,47.90
2023-07-18T13:21:59.379Z,47.00
2023-07-18T13:24:26.952Z,47.00
2023-07-18T13:26:56.783Z,47.60
2023-07-18T13:29:24.071Z,48.10
2023-07-18T13:31:51.442Z,46.70
2023-07-18T13:34:20.808Z,47.70
2023-07-18T13:36:50.606Z,47.90
2023-07-18T13:39:22.506Z,48.40
2023-07-18T13:41:52.099Z,48.00
2023-07-18T13:44:20.894Z,46.80
2023-07-18T13:46:48.702Z,48.20
2023-07-18T13:49:16.110Z,48.60
2023-07-18T13:51:43.671Z,48.70
2023-07-18T13:54:10.945Z,49.40
2023-07-18T13:56:40.418Z,49.40
2023-07-18T13:59:07.706Z,49.60
2023-07-18T14:01:38.066Z,50.10
2023-07-18T14:04:05.692Z,49.50
2023-07-18T14:06:35.400Z,50.20
2023-07-18T14:09:05.426Z,50.40
2023-07-18T14:11:35.498Z,50.20
2023-07-18T14:14:07.361Z,50.30
2023-07-18T14:16:36.149Z,50.40
2023-07-18T14:19:03.506Z,49.70
2023-07-18T14:21:33.364Z,49.60
2023-07-18T14:24:00.778Z,49.30
2023-07-18T14:26:30.440Z,50.20
2023-07-18T14:28:59.994Z,50.50
2023-07-18T14:31:27.479Z,49.90
2023-07-18T14:34:05.669Z,49.80
2023-07-18T14:36:34.292Z,50.10
2023-07-18T14:39:01.776Z,50.40
2023-07-18T14:41:29.103Z,50.90
2023-07-18T14:43:56.474Z,51.70
2023-07-18T14:46:26.031Z,51.80
2023-07-18T14:48:57.938Z,52.40
2023-07-18T14:51:27.608Z,51.70
2023-07-18T14:53:57.313Z,49.10
2023-07-18T14:56:25.868Z,49.20
2023-07-18T14:58:53.148Z,50.80
2023-07-18T15:01:22.735Z,51.90
2023-07-18T15:03:52.963Z,52.00
2023-07-18T15:06:22.987Z,52.30
2023-07-18T15:08:55.283Z,52.70
2023-07-18T15:11:22.634Z,53.00
2023-07-18T15:13:50.215Z,52.60
2023-07-18T15:16:20.202Z,52.90
2023-07-18T15:18:51.177Z,53.40
2023-07-18T15:21:18.512Z,54.30
2023-07-18T15:23:45.823Z,54.20
2023-07-18T15:26:14.827Z,53.80
2023-07-18T15:28:45.116Z,54.10
2023-07-18T15:31:12.495Z,54.00
2023-07-18T15:33:39.969Z,54.50
2023-07-18T15:36:07.392Z,54.10
2023-07-18T15:38:37.088Z,51.70
2023-07-18T15:41:06.996Z,52.30
2023-07-18T15:43:35.286Z,51.60
2023-07-18T15:46:04.498Z,51.70
2023-07-18T15:48:31.872Z,52.80
2023-07-18T15:51:01.551Z,53.30
2023-07-18T15:53:29.133Z,53.60
2023-07-18T15:55:57.156Z,54.00
2023-07-18T15:58:24.513Z,54.40
2023-07-18T16:00:52.254Z,54.70
2023-07-18T16:03:24.339Z,55.30
2023-07-18T16:05:51.950Z,55.30
2023-07-18T16:08:21.492Z,54.70
2023-07-18T16:10:51.196Z,56.10
2023-07-18T16:13:20.809Z,54.80
2023-07-18T16:15:48.390Z,55.30
2023-07-18T16:18:15.704Z,55.40
2023-07-18T16:20:45.486Z,55.50
2023-07-18T16:23:12.942Z,54.80
2023-07-18T16:25:40.322Z,55.20
2023-07-18T16:28:12.413Z,55.50
2023-07-18T16:30:39.694Z,54.50
2023-07-18T16:33:09.582Z,55.00
2023-07-18T16:35:37.037Z,54.80
2023-07-18T16:38:06.584Z,54.30
2023-07-18T16:40:34.089Z,53.50
2023-07-18T16:43:01.370Z,54.70
2023-07-18T16:45:30.881Z,53.80
2023-07-18T16:47:58.185Z,53.00
2023-07-18T16:50:28.339Z,53.00
2023-07-18T16:52:55.807Z,52.80
2023-07-18T16:55:23.202Z,52.50
2023-07-18T16:57:53.113Z,52.90
2023-07-18T17:00:23.225Z,53.10
2023-07-18T17:02:50.504Z,53.00
2023-07-18T17:05:20.378Z,53.10
2023-07-18T17:07:50.186Z,53.40
2023-07-18T17:10:19.699Z,52.30
2023-07-18T17:12:51.590Z,52.30
2023-07-18T17:15:18.847Z,53.60
2023-07-18T17:17:46.387Z,52.60
2023-07-18T17:20:14.742Z,54.10
2023-07-18T17:22:42.229Z,55.20
2023-07-18T17:25:10.086Z,53.30
2023-07-18T17:27:37.375Z,54.30
2023-07-18T17:30:06.134Z,54.40
2023-07-18T17:32:33.560Z,54.30
2023-07-18T17:35:00.990Z,55.10
2023-07-18T17:37:28.323Z,55.60
2023-07-18T17:39:56.439Z,56.50
2023-07-18T17:42:23.927Z,54.30
2023-07-18T17:44:56.447Z,53.80
2023-07-18T17:47:23.807Z,54.80
2023-07-18T17:49:51.107Z,55.20
2023-07-18T17:52:18.390Z,55.10
2023-07-18T17:54:48.019Z,54.20
2023-07-18T17:57:15.329Z,55.20
2023-07-18T17:59:44.807Z,55.40
2023-07-18T18:02:12.183Z,54.20
2023-07-18T18:04:39.754Z,54.90
2023-07-18T18:07:07.089Z,54.50
2023-07-18T18:09:36.620Z,54.60
2023-07-18T18:12:04.077Z,55.20
2023-07-18T18:14:31.368Z,53.90
2023-07-18T18:16:58.731Z,53.70
2023-07-18T18:19:26.105Z,54.30
2023-07-18T18:21:55.614Z,53.80
2023-07-18T18:24:22.870Z,53.50
2023-07-18T18:26:50.174Z,53.90
2023-07-18T18:29:22.807Z,54.10
2023-07-18T18:31:52.680Z,53.20
2023-07-18T18:34:19.974Z,54.00
2023-07-18T18:36:49.586Z,54.60
2023-07-18T18:39:18.537Z,54.50
2023-07-18T18:41:45.843Z,54.20
2023-07-18T18:44:13.138Z,54.50
2023-07-18T18:46:40.537Z,55.10
2023-07-18T18:49:21.348Z,55.40
2023-07-18T18:51:53.811Z,55.60
2023-07-18T18:54:21.505Z,55.50
2023-07-18T18:56:48.823Z,55.40
2023-07-18T18:59:16.574Z,56.10
2023-07-18T19:01:45.811Z,55.70
2023-07-18T19:04:13.288Z,55.90
2023-07-18T19:06:46.251Z,56.30
2023-07-18T19:09:13.569Z,56.30
2023-07-18T19:11:40.887Z,56.60
2023-07-18T19:14:08.197Z,56.40
2023-07-18T19:16:39.971Z,56.80
2023-07-18T19:19:08.940Z,57.10
2023-07-18T19:21:38.709Z,57.50
2023-07-18T19:24:06.444Z,57.30
2023-07-18T19:26:36.318Z,57.70
2023-07-18T19:29:06.035Z,57.80
2023-07-18T19:31:33.381Z,58.00
2023-07-18T19:34:03.353Z,57.60
2023-07-18T19:36:33.036Z,58.20
2023-07-18T19:39:00.329Z,58.40
2023-07-18T19:41:27.603Z,58.20
2023-07-18T19:43:54.942Z,57.90
2023-07-18T19:46:23.252Z,57.60
2023-07-18T19:48:53.313Z,58.20
2023-07-18T19:51:25.164Z,58.30
2023-07-18T19:53:55.000Z,58.40
2023-07-18T19:56:24.439Z,58.50
2023-07-18T19:58:53.853Z,58.30
2023-07-18T20:01:21.394Z,58.60
2023-07-18T20:03:59.496Z,58.90
2023-07-18T20:06:30.447Z,57.80
2023-07-18T20:08:58.539Z,58.00
2023-07-18T20:11:26.077Z,57.80
2023-07-18T20:13:53.495Z,58.40
2023-07-18T20:16:20.883Z,58.40
2023-07-18T20:18:51.714Z,57.40
2023-07-18T20:21:21.574Z,57.20
2023-07-18T20:23:49.192Z,58.00
2023-07-18T20:26:16.608Z,58.50
2023-07-18T20:28:43.906Z,58.50
2023-07-18T20:31:13.700Z,58.40
2023-07-18T20:33:43.730Z,58.50
2023-07-18T20:36:11.152Z,58.80
2023-07-18T20:38:40.731Z,59.20
2023-07-18T20:41:10.383Z,59.10
2023-07-18T20:43:38.017Z,58.70
2023-07-18T20:46:05.582Z,58.10
2023-07-18T20:48:35.734Z,58.50
2023-07-18T20:51:03.302Z,58.10
2023-07-18T20:53:31.061Z,58.10
2023-07-18T20:56:01.526Z,57.70
2023-07-18T20:58:28.797Z,57.60
2023-07-18T21:00:58.675Z,57.90
2023-07-18T21:03:26.132Z,58.70
2023-07-18T21:05:56.134Z,58.30
2023-07-18T21:08:23.479Z,58.50
2023-07-18T21:10:50.820Z,58.30
2023-07-18T21:13:20.776Z,58.80
2023-07-18T21:15:48.351Z,58.40
2023-07-18T21:18:15.843Z,58.20
2023-07-18T21:20:43.304Z,58.10
2023-07-18T21:23:10.785Z,58.00
2023-07-18T21:25:38.285Z,58.20
2023-07-18T21:28:05.724Z,57.90
2023-07-18T21:30:33.153Z,58.50
2023-07-18T21:33:00.543Z,58.20
2023-07-18T21:35:30.026Z,58.60
2023-07-18T21:37:57.332Z,58.70
2023-07-18T21:40:26.823Z,59.10
2023-07-18T21:42:56.790Z,59.00
2023-07-18T21:45:24.104Z,59.90
2023-07-18T21:47:51.480Z,60.30
2023-07-18T21:50:18.892Z,61.30
2023-07-18T21:52:46.177Z,61.20
2023-07-18T21:55:13.451Z,61.40
2023-07-18T21:57:40.744Z,61.70
2023-07-18T22:00:09.658Z,61.70
2023-07-18T22:02:37.727Z,61.20
2023-07-18T22:05:07.877Z,61.00
2023-07-18T22:07:35.340Z,61.00
2023-07-18T22:10:09.333Z,61.00
2023-07-18T22:12:40.248Z,60.90
2023-07-18T22:15:10.599Z,60.70
2023-07-18T22:17:38.923Z,60.50
2023-07-18T22:20:06.925Z,60.40
2023-07-18T22:22:34.265Z,60.70
2023-07-18T22:25:04.599Z,61.00
2023-07-18T22:27:32.171Z,62.90
2023-07-18T22:29:59.461Z,63.50
2023-07-18T22:32:31.374Z,64.30
2023-07-18T22:35:00.000Z,64.60
2023-07-18T22:37:27.664Z,64.80
2023-07-18T22:39:55.322Z,64.70
2023-07-18T22:42:25.504Z,65.10
2023-07-18T22:44:52.874Z,65.60
2023-07-18T22:47:20.764Z,65.80
2023-07-18T22:49:50.641Z,65.50
2023-07-18T22:52:20.556Z,65.30
2023-07-18T22:54:49.045Z,66.00
2023-07-18T22:57:19.251Z,65.80
2023-07-18T22:59:49.463Z,65.40
2023-07-18T23:02:19.933Z,65.80
2023-07-18T23:04:47.485Z,65.60
2023-07-18T23:07:15.083Z,65.40
2023-07-18T23:09:44.863Z,65.90
2023-07-18T23:12:12.516Z,65.30
2023-07-18T23:14:40.211Z,64.90
2023-07-18T23:17:12.451Z,64.60
2023-07-18T23:19:41.921Z,64.70
2023-07-18T23:22:09.665Z,64.70
2023-07-18T23:24:36.945Z,64.70
2023-07-18T23:27:04.387Z,65.20
2023-07-18T23:29:32.149Z,65.30
2023-07-18T23:32:01.712Z,65.40
2023-07-18T23:34:28.979Z,65.20
2023-07-18T23:36:58.637Z,65.50
2023-07-18T23:39:26.041Z,65.30
2023-07-18T23:41:53.334Z,66.00
2023-07-18T23:44:20.597Z,66.70
2023-07-18T23:46:50.105Z,66.50
2023-07-18T23:49:17.561Z,67.00
2023-07-18T23:51:45.022Z,66.90
2023-07-18T23:54:12.335Z,67.20
2023-07-18T23:56:39.765Z,67.50
2023-07-18T23:59:08.184Z,67.60
